createdAt,value
2023-04-08T00:02:20.774Z,6.30
2023-04-08T00:04:53.334Z,6.60
2023-04-08T00:07:23.162Z,5.97
2023-04-08T00:09:53.096Z,6.23
2023-04-08T00:12:22.857Z,6.43
2023-04-08T00:14:52.595Z,6.83
2023-04-08T00:17:22.344Z,5.80
2023-04-08T00:19:55.514Z,6.67
2023-04-08T00:22:26.132Z,5.87
2023-04-08T00:24:55.917Z,7.07
2023-04-08T00:27:25.978Z,6.33
2023-04-08T00:29:55.767Z,6.20
2023-04-08T00:32:25.505Z,6.67
2023-04-08T00:34:58.465Z,6.57
2023-04-08T00:37:28.217Z,7.00
2023-04-08T00:39:57.915Z,6.83
2023-04-08T00:42:27.786Z,7.20
2023-04-08T00:44:57.618Z,7.23
2023-04-08T00:47:27.681Z,7.00
2023-04-08T00:50:00.527Z,7.63
2023-04-08T00:52:30.560Z,6.87
2023-04-08T00:55:00.391Z,7.93
2023-04-08T00:57:30.312Z,7.80
2023-04-08T01:00:00.072Z,6.90
2023-04-08T01:02:37.526Z,7.20
2023-04-08T01:05:14.157Z,6.87
2023-04-08T01:07:49.616Z,6.50
2023-04-08T01:10:25.027Z,7.00
2023-04-08T01:12:58.082Z,6.40
2023-04-08T01:15:29.755Z,6.80
2023-04-08T01:18:02.345Z,6.90
2023-04-08T01:20:35.244Z,6.30
2023-04-08T01:23:22.819Z,6.43
2023-04-08T01:25:56.469Z,6.10
2023-04-08T01:28:32.116Z,6.67
2023-04-08T01:31:05.019Z,5.93
2023-04-08T01:33:35.737Z,5.63
2023-04-08T01:36:06.444Z,6.53
2023-04-08T01:38:42.278Z,6.43
2023-04-08T01:41:14.894Z,5.30
2023-04-08T01:43:47.178Z,6.83
2023-04-08T01:46:18.085Z,5.63
2023-04-08T01:48:49.096Z,6.90
2023-04-08T01:51:20.217Z,6.00
2023-04-08T01:53:49.955Z,7.10
2023-04-08T01:56:25.071Z,6.13
2023-04-08T01:58:57.585Z,5.63
2023-04-08T02:01:30.029Z,6.00
2023-04-08T02:04:02.237Z,6.20
2023-04-08T02:06:33.236Z,6.33
2023-04-08T02:09:04.406Z,5.20
2023-04-08T02:11:36.731Z,6.33
2023-04-08T02:14:06.688Z,5.93
2023-04-08T02:16:43.398Z,6.53
2023-04-08T02:19:17.514Z,5.70
2023-04-08T02:21:50.863Z,5.60
2023-04-08T02:24:21.868Z,6.30
2023-04-08T02:26:55.978Z,5.70
2023-04-08T02:29:28.041Z,5.60
2023-04-08T02:31:58.960Z,5.77
2023-04-08T02:34:29.404Z,5.83
2023-04-08T02:36:59.328Z,5.57
2023-04-08T02:39:34.146Z,5.93
2023-04-08T02:42:07.075Z,6.17
2023-04-08T02:44:36.888Z,5.30
2023-04-08T02:47:06.672Z,6.40
2023-04-08T02:49:38.316Z,6.73
2023-04-08T02:52:08.245Z,6.40
2023-04-08T02:54:38.036Z,6.63
2023-04-08T02:57:10.382Z,6.47
2023-04-08T02:59:41.078Z,6.70
2023-04-08T03:02:11.008Z,6.87
2023-04-08T03:04:40.776Z,7.60
2023-04-08T03:07:10.499Z,6.33
2023-04-08T03:09:40.459Z,7.17
2023-04-08T03:12:12.899Z,6.80
2023-04-08T03:14:42.625Z,7.30
2023-04-08T03:17:12.455Z,6.87
2023-04-08T03:19:42.205Z,7.60
2023-04-08T03:22:12.607Z,6.03
2023-04-08T03:24:42.454Z,7.23
2023-04-08T03:27:15.743Z,7.10
2023-04-08T03:29:46.756Z,6.97
2023-04-08T03:32:16.810Z,7.57
2023-04-08T03:34:46.527Z,6.70
2023-04-08T03:37:16.503Z,5.73
2023-04-08T03:39:46.604Z,6.67
2023-04-08T03:42:19.025Z,6.33
2023-04-08T03:44:48.771Z,6.33
2023-04-08T03:47:18.506Z,6.60
2023-04-08T03:49:48.296Z,6.60
2023-04-08T03:52:18.011Z,5.83
2023-04-08T03:54:47.722Z,6.50
2023-04-08T03:57:20.002Z,5.67
2023-04-08T03:59:49.735Z,6.53
2023-04-08T04:02:19.675Z,6.40
2023-04-08T04:04:49.528Z,6.57
2023-04-08T04:07:19.271Z,6.43
2023-04-08T04:09:49.059Z,7.27
2023-04-08T04:12:21.784Z,7.07
2023-04-08T04:14:51.789Z,6.90
2023-04-08T04:17:21.663Z,7.50
2023-04-08T04:19:51.423Z,7.80
2023-04-08T04:22:21.306Z,7.17
2023-04-08T04:24:51.688Z,7.40
2023-04-08T04:27:23.995Z,7.10
2023-04-08T04:29:53.773Z,7.70
2023-04-08T04:32:23.561Z,8.80
2023-04-08T04:34:53.316Z,8.10
2023-04-08T04:37:23.313Z,7.40
2023-04-08T04:39:53.012Z,8.50
2023-04-08T04:42:25.607Z,8.50
2023-04-08T04:44:55.329Z,9.40
2023-04-08T04:47:25.167Z,8.13
2023-04-08T04:49:55.557Z,9.30
2023-04-08T04:52:25.276Z,8.90
2023-04-08T04:54:54.992Z,9.17
2023-04-08T04:57:27.505Z,10.27
2023-04-08T04:59:57.245Z,10.67
2023-04-08T05:02:27.158Z,10.50
2023-04-08T05:04:57.067Z,9.70
2023-04-08T05:07:26.878Z,9.47
2023-04-08T05:09:57.025Z,9.43
2023-04-08T05:12:29.817Z,9.57
2023-04-08T05:15:02.397Z,8.60
2023-04-08T05:17:32.161Z,9.20
2023-04-08T05:20:01.944Z,9.80
2023-04-08T05:22:31.734Z,9.70
2023-04-08T05:25:01.590Z,10.03
2023-04-08T05:27:33.903Z,10.03
2023-04-08T05:30:04.409Z,10.33
2023-04-08T05:32:34.168Z,9.93
2023-04-08T05:35:05.403Z,10.70
2023-04-08T05:37:35.077Z,9.20
2023-04-08T05:40:04.902Z,9.87
2023-04-08T05:42:37.212Z,9.70
2023-04-08T05:45:07.806Z,10.70
2023-04-08T05:47:37.593Z,10.50
2023-04-08T05:50:08.186Z,12.47
2023-04-08T05:52:37.920Z,11.60
2023-04-08T05:55:09.126Z,12.77
2023-04-08T05:57:41.453Z,12.23
2023-04-08T06:00:13.364Z,13.80
2023-04-08T06:02:43.358Z,13.10
2023-04-08T06:05:13.453Z,13.63
2023-04-08T06:07:43.180Z,13.77
2023-04-08T06:10:13.546Z,13.73
2023-04-08T06:12:45.911Z,14.40
2023-04-08T06:15:16.842Z,14.80
2023-04-08T06:17:46.634Z,14.80
2023-04-08T06:20:16.366Z,17.50
2023-04-08T06:22:46.386Z,16.20
2023-04-08T06:25:16.153Z,17.40
2023-04-08T06:27:48.628Z,18.17
2023-04-08T06:30:19.145Z,17.47
2023-04-08T06:32:49.881Z,19.37
2023-04-08T06:35:19.723Z,16.80
2023-04-08T06:37:49.456Z,18.30
2023-04-08T06:40:19.462Z,19.40
2023-04-08T06:42:51.795Z,18.70
2023-04-08T06:45:35.758Z,18.90
2023-04-08T06:48:06.959Z,19.10
2023-04-08T06:50:36.794Z,18.23
2023-04-08T06:53:06.556Z,21.37
2023-04-08T06:55:36.367Z,19.20
2023-04-08T06:58:08.708Z,20.23
2023-04-08T07:00:38.825Z,19.43
2023-04-08T07:03:08.640Z,20.37
2023-04-08T07:05:39.697Z,21.30
2023-04-08T07:08:09.554Z,19.77
2023-04-08T07:10:39.392Z,19.13
2023-04-08T07:13:11.749Z,19.00
2023-04-08T07:15:41.556Z,22.60
2023-04-08T07:18:12.327Z,21.43
2023-04-08T07:20:42.245Z,26.70
2023-04-08T07:23:12.711Z,20.27
2023-04-08T07:25:42.758Z,21.47
2023-04-08T07:28:15.085Z,20.70
2023-04-08T07:30:44.893Z,19.70
2023-04-08T07:33:15.881Z,19.70
2023-04-08T07:35:45.875Z,21.00
2023-04-08T07:38:15.868Z,20.87
2023-04-08T07:40:45.884Z,21.40
2023-04-08T07:43:18.228Z,22.43
2023-04-08T07:45:48.033Z,21.07
2023-04-08T07:48:17.903Z,23.07
2023-04-08T07:51:09.227Z,21.50
2023-04-08T07:53:37.901Z,23.10
2023-04-08T07:56:14.281Z,21.50
2023-04-08T07:58:46.974Z,22.73
2023-04-08T08:01:21.953Z,22.33
2023-04-08T08:03:52.882Z,20.40
2023-04-08T08:06:23.534Z,23.03
2023-04-08T08:08:53.308Z,21.27
2023-04-08T08:11:23.068Z,23.13
2023-04-08T08:13:55.614Z,21.27
2023-04-08T08:16:27.570Z,20.20
2023-04-08T08:18:57.365Z,19.33
2023-04-08T08:21:27.302Z,19.60
2023-04-08T08:23:57.448Z,20.37
2023-04-08T08:26:27.551Z,19.97
2023-04-08T08:28:59.947Z,17.87
2023-04-08T08:31:29.852Z,17.03
2023-04-08T08:34:00.263Z,18.37
2023-04-08T08:36:34.633Z,16.17
2023-04-08T08:39:05.472Z,17.07
2023-04-08T08:41:39.039Z,17.93
2023-04-08T08:44:13.003Z,17.20
2023-04-08T08:46:46.895Z,15.77
2023-04-08T08:49:16.913Z,16.77
2023-04-08T08:51:49.336Z,16.03
2023-04-08T08:54:19.140Z,17.50
2023-04-08T08:56:49.255Z,16.93
2023-04-08T08:59:21.567Z,17.30
2023-04-08T09:01:51.547Z,16.73
2023-04-08T09:04:23.171Z,16.23
2023-04-08T09:07:11.255Z,16.00
2023-04-08T09:09:51.925Z,16.27
2023-04-08T09:12:22.163Z,17.50
2023-04-08T09:15:06.461Z,15.17
2023-04-08T09:17:38.425Z,15.73
2023-04-08T09:20:15.556Z,15.97
2023-04-08T09:23:03.425Z,16.47
2023-04-08T09:25:35.436Z,15.60
2023-04-08T09:28:05.719Z,16.10
2023-04-08T09:30:38.267Z,14.60
2023-04-08T09:33:08.678Z,14.67
2023-04-08T09:35:38.961Z,14.60
2023-04-08T09:38:08.784Z,14.10
2023-04-08T09:40:40.492Z,15.27
2023-04-08T09:43:14.680Z,15.30
2023-04-08T09:45:49.646Z,16.13
2023-04-08T09:48:26.212Z,15.20
2023-04-08T09:51:03.317Z,15.60
2023-04-08T09:53:37.155Z,14.43
2023-04-08T09:56:11.123Z,15.43
2023-04-08T09:58:44.625Z,15.00
2023-04-08T10:01:19.625Z,16.50
2023-04-08T10:03:53.724Z,15.20
2023-04-08T10:06:25.890Z,15.33
2023-04-08T10:08:55.716Z,16.80
2023-04-08T10:11:26.178Z,14.77
2023-04-08T10:13:56.333Z,15.13
2023-04-08T10:16:30.102Z,15.00
2023-04-08T10:19:00.207Z,16.20
2023-04-08T10:21:40.064Z,14.40
2023-04-08T10:24:11.210Z,16.33
2023-04-08T10:26:43.118Z,17.10
2023-04-08T10:29:46.573Z,15.63
2023-04-08T10:32:33.462Z,16.07
2023-04-08T10:35:04.510Z,15.63
2023-04-08T10:37:34.532Z,15.40
2023-04-08T10:40:04.391Z,15.73
2023-04-08T10:42:34.413Z,17.70
2023-04-08T10:45:05.077Z,17.05
2023-04-08T10:47:37.473Z,15.70
2023-04-08T10:50:16.124Z,16.53
2023-04-08T10:52:50.234Z,16.37
2023-04-08T10:55:25.411Z,17.37
2023-04-08T10:57:58.123Z,16.83
2023-04-08T11:00:37.288Z,17.73
2023-04-08T11:03:11.672Z,16.50
2023-04-08T11:05:43.848Z,17.10
2023-04-08T11:08:13.658Z,17.80
2023-04-08T11:10:45.138Z,17.40
2023-04-08T11:13:15.025Z,16.37
2023-04-08T11:15:45.686Z,17.17
2023-04-08T11:18:18.592Z,16.60
2023-04-08T11:20:48.374Z,16.73
2023-04-08T11:23:18.175Z,16.73
2023-04-08T11:25:49.667Z,16.50
2023-04-08T11:28:21.763Z,17.47
2023-04-08T11:30:51.862Z,17.90
2023-04-08T11:33:28.175Z,16.37
2023-04-08T11:35:57.968Z,16.50
2023-04-08T11:38:30.962Z,15.23
2023-04-08T11:41:02.680Z,16.37
2023-04-08T11:43:32.414Z,17.63
2023-04-08T11:46:02.659Z,15.80
2023-04-08T11:48:35.098Z,17.00
2023-04-08T11:51:09.380Z,16.50
2023-04-08T11:53:39.570Z,16.63
2023-04-08T11:56:22.562Z,16.77
2023-04-08T11:58:52.608Z,17.37
2023-04-08T12:01:23.843Z,17.30
2023-04-08T12:04:00.331Z,15.67
2023-04-08T12:06:31.913Z,16.67
2023-04-08T12:09:01.750Z,17.80
2023-04-08T12:11:31.565Z,18.03
2023-04-08T12:14:01.311Z,18.70
2023-04-08T12:16:31.134Z,19.77
2023-04-08T12:19:03.552Z,16.77
2023-04-08T12:21:34.060Z,17.17
2023-04-08T12:24:03.827Z,16.23
2023-04-08T12:26:33.593Z,15.50
2023-04-08T12:29:03.330Z,18.63
2023-04-08T12:31:33.167Z,16.47
2023-04-08T12:34:06.997Z,14.47
2023-04-08T12:36:36.788Z,17.07
2023-04-08T12:39:06.789Z,15.67
2023-04-08T12:41:36.607Z,16.60
2023-04-08T12:44:06.786Z,15.03
2023-04-08T12:46:36.642Z,16.93
2023-04-08T13:05:05.870Z,16.80
2023-04-08T13:10:56.865Z,16.53
2023-04-08T13:13:26.828Z,17.90
2023-04-08T13:15:56.764Z,18.13
2023-04-08T13:18:26.521Z,15.63
2023-04-08T13:20:59.063Z,17.90
2023-04-08T13:23:28.827Z,18.00
2023-04-08T13:25:58.578Z,17.27
2023-04-08T13:28:28.444Z,18.90
2023-04-08T13:30:58.450Z,17.30
2023-04-08T13:33:28.195Z,17.70
2023-04-08T13:36:00.644Z,17.73
2023-04-08T13:38:30.943Z,18.40
2023-04-08T13:41:00.711Z,19.60
2023-04-08T13:43:31.097Z,21.00
2023-04-08T13:46:01.082Z,19.10
2023-04-08T13:48:31.021Z,18.00
2023-04-08T13:51:03.667Z,18.30
2023-04-08T13:53:33.583Z,19.17
2023-04-08T13:56:03.320Z,19.03
2023-04-08T13:58:33.147Z,18.07
2023-04-08T14:01:02.892Z,18.47
2023-04-08T14:03:32.696Z,22.83
2023-04-08T14:06:04.995Z,22.77
2023-04-08T14:08:34.775Z,20.50
2023-04-08T14:11:04.521Z,19.40
2023-04-08T14:13:34.739Z,17.30
2023-04-08T14:16:04.561Z,17.37
2023-04-08T14:18:34.281Z,18.27
2023-04-08T14:21:07.575Z,18.63
2023-04-08T14:23:37.312Z,18.80
2023-04-08T14:26:07.107Z,17.87
2023-04-08T14:28:36.847Z,20.67
2023-04-08T14:31:06.812Z,19.10
2023-04-08T14:33:36.983Z,19.20
2023-04-08T14:36:09.991Z,17.43
2023-04-08T14:38:39.747Z,18.33
2023-04-08T14:41:09.528Z,18.03
2023-04-08T14:43:39.259Z,17.83
2023-04-08T14:46:09.257Z,18.37
2023-04-08T14:48:39.051Z,21.40
2023-04-08T14:51:11.471Z,19.33
2023-04-08T14:53:41.422Z,16.40
2023-04-08T14:56:11.588Z,17.70
2023-04-08T14:58:41.401Z,16.87
2023-04-08T15:01:11.699Z,16.83
2023-04-08T15:03:41.613Z,17.13
2023-04-08T15:06:17.084Z,17.40
2023-04-08T15:08:46.873Z,17.70
2023-04-08T15:11:16.811Z,18.60
2023-04-08T15:13:46.872Z,17.60
2023-04-08T15:16:16.878Z,17.60
2023-04-08T15:18:46.837Z,16.63
2023-04-08T15:21:19.192Z,17.27
2023-04-08T15:23:49.050Z,14.47
2023-04-08T15:26:18.841Z,16.70
2023-04-08T15:28:49.372Z,16.90
2023-04-08T15:31:19.727Z,15.97
2023-04-08T15:33:49.970Z,17.23
2023-04-08T15:36:22.800Z,16.43
2023-04-08T15:38:53.158Z,17.33
2023-04-08T15:41:24.076Z,15.33
2023-04-08T15:43:55.229Z,16.87
2023-04-08T15:46:25.036Z,16.40
2023-04-08T15:48:55.098Z,15.70
2023-04-08T15:51:27.962Z,15.50
2023-04-08T15:53:57.710Z,15.30
2023-04-08T15:56:29.571Z,16.50
2023-04-08T15:58:59.414Z,16.40
2023-04-08T16:01:29.253Z,16.50
2023-04-08T16:03:59.137Z,16.33
2023-04-08T16:06:31.575Z,18.67
2023-04-08T16:09:01.447Z,17.50
2023-04-08T16:11:31.315Z,18.07
2023-04-08T16:14:01.065Z,17.77
2023-04-08T16:16:31.192Z,22.40
2023-04-08T16:19:02.434Z,17.27
2023-04-08T16:21:34.846Z,18.23
2023-04-08T16:24:05.394Z,17.60
2023-04-08T16:26:35.372Z,17.93
2023-04-08T16:29:05.151Z,17.30
2023-04-08T16:31:34.932Z,17.80
2023-04-08T16:34:05.209Z,17.30
2023-04-08T16:36:37.784Z,18.87
2023-04-08T16:39:07.726Z,18.80
2023-04-08T16:41:37.474Z,16.80
2023-04-08T16:44:07.328Z,17.87
2023-04-08T16:46:37.167Z,16.93
2023-04-08T16:49:06.917Z,20.57
2023-04-08T16:51:39.241Z,18.10
2023-04-08T16:54:08.974Z,17.13
2023-04-08T16:56:44.403Z,18.83
2023-04-08T16:59:14.593Z,19.80
2023-04-08T17:01:44.440Z,22.17
2023-04-08T17:04:14.253Z,23.10
2023-04-08T17:06:47.241Z,20.80
2023-04-08T17:09:16.977Z,22.20
2023-04-08T17:11:46.913Z,19.60
2023-04-08T17:14:16.694Z,21.20
2023-04-08T17:16:46.693Z,18.90
2023-04-08T17:19:16.849Z,19.77
2023-04-08T17:21:49.242Z,22.07
2023-04-08T17:24:19.054Z,21.60
2023-04-08T17:26:49.462Z,19.67
2023-04-08T17:29:19.176Z,19.37
2023-04-08T17:31:48.951Z,18.77
2023-04-08T17:34:18.850Z,19.47
2023-04-08T17:36:51.461Z,20.50
2023-04-08T17:39:21.885Z,19.40
2023-04-08T17:41:51.650Z,21.70
2023-04-08T17:44:21.925Z,26.80
2023-04-08T17:46:51.668Z,29.30
2023-04-08T17:49:21.604Z,42.03
2023-04-08T17:51:54.420Z,52.20
2023-04-08T17:54:24.524Z,48.80
2023-04-08T17:56:54.252Z,44.57
2023-04-08T17:59:24.122Z,46.80
2023-04-08T18:01:54.496Z,39.90
2023-04-08T18:04:24.583Z,40.90
2023-04-08T18:06:57.326Z,31.80
2023-04-08T18:09:27.149Z,34.10
2023-04-08T18:11:56.900Z,29.30
2023-04-08T18:14:26.778Z,28.00
2023-04-08T18:16:56.663Z,25.70
2023-04-08T18:19:27.229Z,24.70
2023-04-08T18:21:59.690Z,21.63
2023-04-08T18:24:29.444Z,21.33
2023-04-08T18:27:04.505Z,22.13
2023-04-08T18:29:34.769Z,22.10
2023-04-08T18:32:04.637Z,23.13
2023-04-08T18:34:34.612Z,20.60
2023-04-08T18:37:07.507Z,23.30
2023-04-08T18:39:37.487Z,22.50
2023-04-08T18:42:07.428Z,20.13
2023-04-08T18:44:37.203Z,30.47
2023-04-08T18:47:07.549Z,34.63
2023-04-08T18:49:38.841Z,53.00
2023-04-08T18:52:11.527Z,32.43
2023-04-08T18:54:41.303Z,22.30
2023-04-08T18:57:11.194Z,22.73
2023-04-08T18:59:40.962Z,22.10
2023-04-08T19:02:10.913Z,25.83
2023-04-08T19:04:41.051Z,28.70
2023-04-08T19:07:13.593Z,32.03
2023-04-08T19:09:43.746Z,31.07
2023-04-08T19:12:13.900Z,35.30
2023-04-08T19:14:43.848Z,36.20
2023-04-08T19:17:13.644Z,36.00
2023-04-08T19:19:43.644Z,38.53
2023-04-08T19:22:16.813Z,34.70
2023-04-08T19:24:46.805Z,37.20
2023-04-08T19:27:17.025Z,34.73
2023-04-08T19:29:47.020Z,37.70
2023-04-08T19:32:17.061Z,39.27
2023-04-08T19:34:47.268Z,38.03
2023-04-08T19:37:20.376Z,39.10
2023-04-08T19:39:50.541Z,37.73
2023-04-08T19:42:20.636Z,37.60
2023-04-08T19:44:50.962Z,35.80
2023-04-08T19:47:21.096Z,37.90
2023-04-08T19:49:51.128Z,37.67
2023-04-08T19:52:23.813Z,35.10
2023-04-08T19:54:54.170Z,36.00
2023-04-08T19:57:24.275Z,30.53
2023-04-08T19:59:56.197Z,31.10
2023-04-08T20:02:26.081Z,31.90
2023-04-08T20:04:56.437Z,31.10
2023-04-08T20:07:29.040Z,31.80
2023-04-08T20:09:59.525Z,32.07
2023-04-08T20:12:30.596Z,31.23
2023-04-08T20:15:01.646Z,30.37
2023-04-08T20:17:31.945Z,30.27
2023-04-08T20:20:02.134Z,30.33
2023-04-08T20:22:34.628Z,28.23
2023-04-08T20:25:05.698Z,26.27
2023-04-08T20:27:36.573Z,27.50
2023-04-08T20:30:07.472Z,27.20
2023-04-08T20:32:37.491Z,26.20
2023-04-08T20:35:08.058Z,27.53
2023-04-08T20:37:40.878Z,28.10
2023-04-08T20:40:12.513Z,28.90
2023-04-08T20:42:42.723Z,28.87
2023-04-08T20:45:13.899Z,29.03
2023-04-08T20:47:44.875Z,29.97
2023-04-08T20:50:15.436Z,30.30
2023-04-08T20:52:48.164Z,29.67
2023-04-08T20:55:18.119Z,31.17
2023-04-08T20:57:48.173Z,34.23
2023-04-08T21:00:18.560Z,31.23
2023-04-08T21:02:48.653Z,29.93
2023-04-08T21:05:18.745Z,32.80
2023-04-08T21:07:51.301Z,32.37
2023-04-08T21:10:21.431Z,30.50
2023-04-08T21:12:51.313Z,33.73
2023-04-08T21:15:22.083Z,32.00
2023-04-08T21:17:51.916Z,31.47
2023-04-08T21:20:21.777Z,32.10
2023-04-08T21:22:54.179Z,31.40
2023-04-08T21:25:24.994Z,32.10
2023-04-08T21:27:54.739Z,30.43
2023-04-08T21:30:25.505Z,30.40
2023-04-08T21:33:01.916Z,32.30
2023-04-08T21:35:33.698Z,33.03
2023-04-08T21:38:06.885Z,31.27
2023-04-08T21:40:37.048Z,32.60
2023-04-08T21:43:07.368Z,34.67
2023-04-08T21:45:37.453Z,32.00
2023-04-08T21:48:07.967Z,32.57
2023-04-08T21:50:41.966Z,30.47
2023-04-08T21:53:15.056Z,32.60
2023-04-08T21:55:48.095Z,35.67
2023-04-08T21:58:18.279Z,33.53
2023-04-08T22:00:49.659Z,34.27
2023-04-08T22:03:20.042Z,31.50
2023-04-08T22:05:49.956Z,31.77
2023-04-08T22:08:23.287Z,33.30
2023-04-08T22:10:54.354Z,30.97
2023-04-08T22:13:24.306Z,35.30
2023-04-08T22:15:54.370Z,35.70
2023-04-08T22:18:24.410Z,34.57
2023-04-08T22:20:54.539Z,33.00
2023-04-08T22:23:27.276Z,30.40
2023-04-08T22:25:57.319Z,31.20
2023-04-08T22:28:27.505Z,30.87
2023-04-08T22:30:57.691Z,31.40
2023-04-08T22:33:27.999Z,30.40
2023-04-08T22:35:59.884Z,32.80
2023-04-08T22:38:32.847Z,32.23
2023-04-08T22:41:02.699Z,31.70
2023-04-08T22:43:33.805Z,31.43
2023-04-08T22:46:03.834Z,26.90
2023-04-08T22:48:33.860Z,30.85
2023-04-08T22:51:04.358Z,29.80
2023-04-08T22:53:37.312Z,30.07
2023-04-08T22:56:08.088Z,35.43
2023-04-08T22:58:38.641Z,37.87
2023-04-08T23:01:14.552Z,40.47
2023-04-08T23:03:45.257Z,55.80
2023-04-08T23:06:15.473Z,41.43
2023-04-08T23:08:48.313Z,32.63
2023-04-08T23:11:18.439Z,32.60
2023-04-08T23:13:48.679Z,30.50
2023-04-08T23:16:25.455Z,30.57
2023-04-08T23:18:55.907Z,28.47
2023-04-08T23:21:27.414Z,31.90
2023-04-08T23:24:00.416Z,32.57
2023-04-08T23:26:31.468Z,31.80
2023-04-08T23:29:01.955Z,30.40
2023-04-08T23:31:32.475Z,32.30
2023-04-08T23:34:02.693Z,33.07
2023-04-08T23:36:32.976Z,31.40
2023-04-08T23:39:06.683Z,30.27
2023-04-08T23:41:37.179Z,28.83
2023-04-08T23:44:08.028Z,29.40
2023-04-08T23:46:38.892Z,30.27
2023-04-08T23:49:09.051Z,26.43
2023-04-08T23:51:39.581Z,26.87
2023-04-08T23:54:13.572Z,25.70
2023-04-08T23:56:44.766Z,29.40
2023-04-08T23:59:16.687Z,28.73
